sensor_id;sensor_type;location;lat;lon;timestamp;P1;durP1;ratioP1;P2;durP2;ratioP2
80241;SDS011;69556;45.004;7.532;2024-02-21T00:00:33;41.53;;;19.47;;
80241;SDS011;69556;45.004;7.532;2024-02-21T00:02:58;44.42;;;21.38;;
80241;SDS011;69556;45.004;7.532;2024-02-21T00:05:27;48.78;;;23.67;;
80241;SDS011;69556;45.004;7.532;2024-02-21T00:07:52;49.03;;;23.13;;
80241;SDS011;69556;45.004;7.532;2024-02-21T00:10:17;52.77;;;23.33;;
80241;SDS011;69556;45.004;7.532;2024-02-21T00:12:43;61.70;;;25.73;;
80241;SDS011;69556;45.004;7.532;2024-02-21T00:15:08;42.72;;;23.83;;
80241;SDS011;69556;45.004;7.532;2024-02-21T00:17:34;57.33;;;24.70;;
80241;SDS011;69556;45.004;7.532;2024-02-21T00:19:59;50.73;;;23.40;;
80241;SDS011;69556;45.004;7.532;2024-02-21T00:22:25;45.47;;;22.50;;
80241;SDS011;69556;45.004;7.532;2024-02-21T00:27:18;47.97;;;22.30;;
80241;SDS011;69556;45.004;7.532;2024-02-21T00:29:43;51.92;;;24.23;;
80241;SDS011;69556;45.004;7.532;2024-02-21T00:32:09;50.45;;;23.55;;
80241;SDS011;69556;45.004;7.532;2024-02-21T00:34:34;54.73;;;22.57;;
80241;SDS011;69556;45.004;7.532;2024-02-21T00:37:00;50.33;;;23.45;;
80241;SDS011;69556;45.004;7.532;2024-02-21T00:39:26;50.30;;;23.30;;
80241;SDS011;69556;45.004;7.532;2024-02-21T00:41:51;45.10;;;21.42;;
80241;SDS011;69556;45.004;7.532;2024-02-21T00:44:16;53.65;;;22.33;;
80241;SDS011;69556;45.004;7.532;2024-02-21T00:46:42;48.30;;;21.57;;
80241;SDS011;69556;45.004;7.532;2024-02-21T00:49:07;48.03;;;21.83;;
80241;SDS011;69556;45.004;7.532;2024-02-21T00:51:32;51.67;;;21.90;;
80241;SDS011;69556;45.004;7.532;2024-02-21T00:53:58;44.20;;;21.63;;
80241;SDS011;69556;45.004;7.532;2024-02-21T00:56:23;46.83;;;21.50;;
80241;SDS011;69556;45.004;7.532;2024-02-21T00:58:49;44.92;;;22.83;;
80241;SDS011;69556;45.004;7.532;2024-02-21T01:01:20;46.88;;;21.50;;
80241;SDS011;69556;45.004;7.532;2024-02-21T01:03:50;47.65;;;22.88;;
80241;SDS011;69556;45.004;7.532;2024-02-21T01:08:43;45.87;;;22.03;;
80241;SDS011;69556;45.004;7.532;2024-02-21T01:11:08;46.40;;;22.00;;
80241;SDS011;69556;45.004;7.532;2024-02-21T01:13:34;46.20;;;22.77;;
80241;SDS011;69556;45.004;7.532;2024-02-21T01:15:59;41.58;;;21.42;;
80241;SDS011;69556;45.004;7.532;2024-02-21T01:18:24;52.63;;;24.80;;
80241;SDS011;69556;45.004;7.532;2024-02-21T01:20:50;49.92;;;21.83;;
80241;SDS011;69556;45.004;7.532;2024-02-21T01:23:16;42.00;;;21.07;;
80241;SDS011;69556;45.004;7.532;2024-02-21T01:25:41;47.00;;;21.87;;
80241;SDS011;69556;45.004;7.532;2024-02-21T01:28:07;47.00;;;22.45;;
80241;SDS011;69556;45.004;7.532;2024-02-21T01:30:32;40.55;;;21.80;;
80241;SDS011;69556;45.004;7.532;2024-02-21T01:32:58;49.60;;;22.73;;
80241;SDS011;69556;45.004;7.532;2024-02-21T01:35:23;47.17;;;21.10;;
80241;SDS011;69556;45.004;7.532;2024-02-21T01:37:48;46.45;;;22.27;;
80241;SDS011;69556;45.004;7.532;2024-02-21T01:40:14;52.70;;;22.80;;
80241;SDS011;69556;45.004;7.532;2024-02-21T01:42:40;49.53;;;23.42;;
80241;SDS011;69556;45.004;7.532;2024-02-21T01:45:06;44.20;;;22.15;;
80241;SDS011;69556;45.004;7.532;2024-02-21T01:47:31;52.72;;;23.55;;
80241;SDS011;69556;45.004;7.532;2024-02-21T01:49:57;43.85;;;21.77;;
80241;SDS011;69556;45.004;7.532;2024-02-21T01:52:22;48.33;;;23.10;;
80241;SDS011;69556;45.004;7.532;2024-02-21T01:54:48;52.30;;;24.30;;
80241;SDS011;69556;45.004;7.532;2024-02-21T01:57:14;47.25;;;23.52;;
80241;SDS011;69556;45.004;7.532;2024-02-21T01:59:39;40.55;;;20.63;;
80241;SDS011;69556;45.004;7.532;2024-02-21T02:02:05;52.22;;;23.50;;
80241;SDS011;69556;45.004;7.532;2024-02-21T02:04:31;48.65;;;26.02;;
80241;SDS011;69556;45.004;7.532;2024-02-21T02:06:57;53.40;;;23.08;;
80241;SDS011;69556;45.004;7.532;2024-02-21T02:09:27;56.78;;;24.55;;
80241;SDS011;69556;45.004;7.532;2024-02-21T02:11:52;47.83;;;23.90;;
80241;SDS011;69556;45.004;7.532;2024-02-21T02:14:18;52.83;;;24.75;;
80241;SDS011;69556;45.004;7.532;2024-02-21T02:16:46;50.47;;;23.15;;
80241;SDS011;69556;45.004;7.532;2024-02-21T02:19:12;46.22;;;23.45;;
80241;SDS011;69556;45.004;7.532;2024-02-21T02:21:39;52.78;;;22.52;;
80241;SDS011;69556;45.004;7.532;2024-02-21T02:24:07;54.08;;;23.75;;
80241;SDS011;69556;45.004;7.532;2024-02-21T02:26:32;52.05;;;22.20;;
80241;SDS011;69556;45.004;7.532;2024-02-21T02:28:58;51.55;;;24.42;;
80241;SDS011;69556;45.004;7.532;2024-02-21T02:31:23;48.80;;;21.87;;
80241;SDS011;69556;45.004;7.532;2024-02-21T02:33:48;48.83;;;21.97;;
80241;SDS011;69556;45.004;7.532;2024-02-21T02:36:14;50.03;;;23.35;;
80241;SDS011;69556;45.004;7.532;2024-02-21T02:38:39;45.28;;;21.80;;
80241;SDS011;69556;45.004;7.532;2024-02-21T02:41:05;43.88;;;22.10;;
80241;SDS011;69556;45.004;7.532;2024-02-21T02:43:30;53.13;;;24.67;;
80241;SDS011;69556;45.004;7.532;2024-02-21T02:45:56;48.72;;;22.42;;
80241;SDS011;69556;45.004;7.532;2024-02-21T02:48:22;44.35;;;22.75;;
80241;SDS011;69556;45.004;7.532;2024-02-21T02:50:47;45.70;;;23.35;;
80241;SDS011;69556;45.004;7.532;2024-02-21T02:53:14;50.88;;;24.50;;
80241;SDS011;69556;45.004;7.532;2024-02-21T02:55:39;58.83;;;23.23;;
80241;SDS011;69556;45.004;7.532;2024-02-21T02:58:05;49.03;;;22.87;;
80241;SDS011;69556;45.004;7.532;2024-02-21T03:00:30;49.60;;;23.43;;
80241;SDS011;69556;45.004;7.532;2024-02-21T03:02:55;53.15;;;23.63;;
80241;SDS011;69556;45.004;7.532;2024-02-21T03:05:21;46.10;;;21.60;;
80241;SDS011;69556;45.004;7.532;2024-02-21T03:07:47;53.17;;;22.00;;
80241;SDS011;69556;45.004;7.532;2024-02-21T03:10:14;41.03;;;20.70;;
80241;SDS011;69556;45.004;7.532;2024-02-21T03:12:41;42.33;;;20.88;;
80241;SDS011;69556;45.004;7.532;2024-02-21T03:15:07;40.13;;;20.58;;
80241;SDS011;69556;45.004;7.532;2024-02-21T03:17:33;51.70;;;21.90;;
80241;SDS011;69556;45.004;7.532;2024-02-21T03:20:04;44.67;;;21.73;;
80241;SDS011;69556;45.004;7.532;2024-02-21T03:22:30;46.00;;;21.63;;
80241;SDS011;69556;45.004;7.532;2024-02-21T03:24:56;39.45;;;20.63;;
80241;SDS011;69556;45.004;7.532;2024-02-21T03:27:21;51.80;;;21.60;;
80241;SDS011;69556;45.004;7.532;2024-02-21T03:29:46;42.55;;;21.35;;
80241;SDS011;69556;45.004;7.532;2024-02-21T03:32:12;39.60;;;19.97;;
80241;SDS011;69556;45.004;7.532;2024-02-21T03:34:37;48.65;;;20.52;;
80241;SDS011;69556;45.004;7.532;2024-02-21T03:37:02;41.53;;;19.17;;
80241;SDS011;69556;45.004;7.532;2024-02-21T03:39:30;38.92;;;18.95;;
80241;SDS011;69556;45.004;7.532;2024-02-21T03:44:22;40.33;;;18.42;;
80241;SDS011;69556;45.004;7.532;2024-02-21T03:46:48;38.37;;;19.10;;
80241;SDS011;69556;45.004;7.532;2024-02-21T03:49:13;42.67;;;18.90;;
80241;SDS011;69556;45.004;7.532;2024-02-21T03:51:38;42.33;;;18.80;;
80241;SDS011;69556;45.004;7.532;2024-02-21T03:54:04;39.50;;;18.70;;
80241;SDS011;69556;45.004;7.532;2024-02-21T03:56:29;40.42;;;19.40;;
80241;SDS011;69556;45.004;7.532;2024-02-21T03:58:54;40.57;;;19.13;;
80241;SDS011;69556;45.004;7.532;2024-02-21T04:01:20;34.67;;;19.30;;
80241;SDS011;69556;45.004;7.532;2024-02-21T04:03:45;41.55;;;19.40;;
80241;SDS011;69556;45.004;7.532;2024-02-21T04:06:11;36.92;;;19.55;;
80241;SDS011;69556;45.004;7.532;2024-02-21T04:08:37;40.60;;;20.25;;
80241;SDS011;69556;45.004;7.532;2024-02-21T04:11:02;43.92;;;18.80;;
80241;SDS011;69556;45.004;7.532;2024-02-21T04:13:28;35.60;;;18.17;;
80241;SDS011;69556;45.004;7.532;2024-02-21T04:15:53;38.85;;;19.83;;
80241;SDS011;69556;45.004;7.532;2024-02-21T04:18:19;34.83;;;17.70;;
80241;SDS011;69556;45.004;7.532;2024-02-21T04:20:44;37.95;;;18.27;;
80241;SDS011;69556;45.004;7.532;2024-02-21T04:23:09;35.93;;;18.27;;
80241;SDS011;69556;45.004;7.532;2024-02-21T04:25:35;41.72;;;19.05;;
80241;SDS011;69556;45.004;7.532;2024-02-21T04:28:01;40.50;;;18.13;;
80241;SDS011;69556;45.004;7.532;2024-02-21T04:30:26;36.50;;;17.97;;
80241;SDS011;69556;45.004;7.532;2024-02-21T04:32:51;39.73;;;19.13;;
80241;SDS011;69556;45.004;7.532;2024-02-21T04:35:17;32.53;;;17.80;;
80241;SDS011;69556;45.004;7.532;2024-02-21T04:37:42;34.63;;;17.27;;
80241;SDS011;69556;45.004;7.532;2024-02-21T04:40:07;35.13;;;16.50;;
80241;SDS011;69556;45.004;7.532;2024-02-21T04:42:34;37.35;;;17.85;;
80241;SDS011;69556;45.004;7.532;2024-02-21T04:44:59;37.65;;;17.83;;
80241;SDS011;69556;45.004;7.532;2024-02-21T04:47:25;32.80;;;16.40;;
80241;SDS011;69556;45.004;7.532;2024-02-21T04:49:50;34.83;;;17.52;;
80241;SDS011;69556;45.004;7.532;2024-02-21T04:52:15;31.98;;;16.63;;
80241;SDS011;69556;45.004;7.532;2024-02-21T04:54:41;38.92;;;17.55;;
80241;SDS011;69556;45.004;7.532;2024-02-21T04:57:06;32.23;;;16.67;;
80241;SDS011;69556;45.004;7.532;2024-02-21T04:59:32;29.52;;;16.13;;
80241;SDS011;69556;45.004;7.532;2024-02-21T05:01:57;34.27;;;14.50;;
80241;SDS011;69556;45.004;7.532;2024-02-21T05:04:23;35.92;;;15.35;;
80241;SDS011;69556;45.004;7.532;2024-02-21T05:06:49;31.85;;;14.50;;
80241;SDS011;69556;45.004;7.532;2024-02-21T05:09:14;31.67;;;15.43;;
80241;SDS011;69556;45.004;7.532;2024-02-21T05:11:40;37.20;;;14.77;;
80241;SDS011;69556;45.004;7.532;2024-02-21T05:14:05;30.20;;;14.80;;
80241;SDS011;69556;45.004;7.532;2024-02-21T05:16:31;25.77;;;14.00;;
80241;SDS011;69556;45.004;7.532;2024-02-21T05:18:57;25.05;;;14.45;;
80241;SDS011;69556;45.004;7.532;2024-02-21T05:21:22;36.40;;;15.40;;
80241;SDS011;69556;45.004;7.532;2024-02-21T05:23:49;27.33;;;13.75;;
80241;SDS011;69556;45.004;7.532;2024-02-21T05:26:24;31.23;;;13.85;;
80241;SDS011;69556;45.004;7.532;2024-02-21T05:28:49;25.58;;;12.20;;
80241;SDS011;69556;45.004;7.532;2024-02-21T05:31:18;24.90;;;12.93;;
80241;SDS011;69556;45.004;7.532;2024-02-21T05:33:44;23.10;;;9.82;;
80241;SDS011;69556;45.004;7.532;2024-02-21T05:36:10;25.83;;;10.07;;
80241;SDS011;69556;45.004;7.532;2024-02-21T05:38:36;24.13;;;10.57;;
80241;SDS011;69556;45.004;7.532;2024-02-21T05:41:02;19.67;;;10.27;;
80241;SDS011;69556;45.004;7.532;2024-02-21T05:43:28;22.60;;;10.00;;
80241;SDS011;69556;45.004;7.532;2024-02-21T05:45:53;20.47;;;10.53;;
80241;SDS011;69556;45.004;7.532;2024-02-21T05:48:18;24.87;;;10.57;;
80241;SDS011;69556;45.004;7.532;2024-02-21T05:50:45;19.85;;;8.80;;
80241;SDS011;69556;45.004;7.532;2024-02-21T05:53:10;26.60;;;10.35;;
80241;SDS011;69556;45.004;7.532;2024-02-21T05:55:36;21.25;;;10.18;;
80241;SDS011;69556;45.004;7.532;2024-02-21T05:58:02;25.15;;;9.23;;
80241;SDS011;69556;45.004;7.532;2024-02-21T06:00:27;22.92;;;10.75;;
80241;SDS011;69556;45.004;7.532;2024-02-21T06:02:53;23.10;;;10.65;;
80241;SDS011;69556;45.004;7.532;2024-02-21T06:05:18;23.40;;;10.82;;
80241;SDS011;69556;45.004;7.532;2024-02-21T06:07:44;19.33;;;10.75;;
80241;SDS011;69556;45.004;7.532;2024-02-21T06:10:09;18.23;;;9.63;;
80241;SDS011;69556;45.004;7.532;2024-02-21T06:12:34;16.98;;;8.15;;
80241;SDS011;69556;45.004;7.532;2024-02-21T06:15:00;16.23;;;8.80;;
80241;SDS011;69556;45.004;7.532;2024-02-21T06:17:25;19.77;;;8.90;;
80241;SDS011;69556;45.004;7.532;2024-02-21T06:19:50;15.60;;;7.13;;
80241;SDS011;69556;45.004;7.532;2024-02-21T06:22:16;15.40;;;7.43;;
80241;SDS011;69556;45.004;7.532;2024-02-21T06:24:41;11.27;;;6.20;;
80241;SDS011;69556;45.004;7.532;2024-02-21T06:27:07;10.52;;;5.60;;
80241;SDS011;69556;45.004;7.532;2024-02-21T06:29:33;8.27;;;4.43;;
80241;SDS011;69556;45.004;7.532;2024-02-21T06:31:58;8.88;;;5.15;;
80241;SDS011;69556;45.004;7.532;2024-02-21T06:34:24;9.68;;;5.20;;
80241;SDS011;69556;45.004;7.532;2024-02-21T06:36:50;10.48;;;5.15;;
80241;SDS011;69556;45.004;7.532;2024-02-21T06:39:16;10.15;;;5.25;;
80241;SDS011;69556;45.004;7.532;2024-02-21T06:41:41;9.35;;;5.25;;
80241;SDS011;69556;45.004;7.532;2024-02-21T06:44:07;17.95;;;5.32;;
80241;SDS011;69556;45.004;7.532;2024-02-21T06:46:32;9.77;;;4.93;;
80241;SDS011;69556;45.004;7.532;2024-02-21T06:48:58;14.80;;;5.53;;
80241;SDS011;69556;45.004;7.532;2024-02-21T06:51:25;12.30;;;5.75;;
80241;SDS011;69556;45.004;7.532;2024-02-21T06:53:53;9.63;;;5.13;;
80241;SDS011;69556;45.004;7.532;2024-02-21T06:56:19;11.98;;;5.38;;
80241;SDS011;69556;45.004;7.532;2024-02-21T06:58:44;16.10;;;6.95;;
80241;SDS011;69556;45.004;7.532;2024-02-21T07:01:10;12.98;;;6.22;;
80241;SDS011;69556;45.004;7.532;2024-02-21T07:03:35;21.65;;;6.35;;
80241;SDS011;69556;45.004;7.532;2024-02-21T07:06:01;15.20;;;5.43;;
80241;SDS011;69556;45.004;7.532;2024-02-21T07:08:26;17.88;;;6.68;;
80241;SDS011;69556;45.004;7.532;2024-02-21T07:10:52;11.63;;;6.18;;
80241;SDS011;69556;45.004;7.532;2024-02-21T07:13:17;15.90;;;6.13;;
80241;SDS011;69556;45.004;7.532;2024-02-21T07:15:43;11.47;;;5.50;;
80241;SDS011;69556;45.004;7.532;2024-02-21T07:18:08;11.90;;;5.88;;
80241;SDS011;69556;45.004;7.532;2024-02-21T07:20:33;11.43;;;5.40;;
80241;SDS011;69556;45.004;7.532;2024-02-21T07:23:01;14.35;;;6.07;;
80241;SDS011;69556;45.004;7.532;2024-02-21T07:25:27;14.57;;;5.57;;
80241;SDS011;69556;45.004;7.532;2024-02-21T07:27:52;13.67;;;6.50;;
80241;SDS011;69556;45.004;7.532;2024-02-21T07:30:18;13.45;;;5.40;;
80241;SDS011;69556;45.004;7.532;2024-02-21T07:32:43;13.95;;;5.10;;
80241;SDS011;69556;45.004;7.532;2024-02-21T07:35:09;10.55;;;5.15;;
80241;SDS011;69556;45.004;7.532;2024-02-21T07:37:36;13.75;;;5.72;;
80241;SDS011;69556;45.004;7.532;2024-02-21T07:40:03;11.02;;;5.22;;
80241;SDS011;69556;45.004;7.532;2024-02-21T07:42:30;12.50;;;5.95;;
80241;SDS011;69556;45.004;7.532;2024-02-21T07:44:55;11.10;;;6.20;;
80241;SDS011;69556;45.004;7.532;2024-02-21T07:47:21;12.30;;;6.38;;
80241;SDS011;69556;45.004;7.532;2024-02-21T07:49:47;14.25;;;6.25;;
80241;SDS011;69556;45.004;7.532;2024-02-21T07:52:13;19.55;;;6.43;;
80241;SDS011;69556;45.004;7.532;2024-02-21T07:54:39;19.05;;;8.63;;
80241;SDS011;69556;45.004;7.532;2024-02-21T07:57:06;26.65;;;9.80;;
80241;SDS011;69556;45.004;7.532;2024-02-21T07:59:31;26.02;;;12.07;;
80241;SDS011;69556;45.004;7.532;2024-02-21T08:01:57;29.35;;;13.40;;
80241;SDS011;69556;45.004;7.532;2024-02-21T08:04:23;41.50;;;16.90;;
80241;SDS011;69556;45.004;7.532;2024-02-21T08:06:54;40.15;;;17.73;;
80241;SDS011;69556;45.004;7.532;2024-02-21T08:09:26;42.33;;;19.48;;
80241;SDS011;69556;45.004;7.532;2024-02-21T08:11:52;43.03;;;20.05;;
80241;SDS011;69556;45.004;7.532;2024-02-21T08:14:17;44.22;;;20.65;;
80241;SDS011;69556;45.004;7.532;2024-02-21T08:16:42;47.35;;;21.17;;
80241;SDS011;69556;45.004;7.532;2024-02-21T08:19:08;48.13;;;20.58;;
80241;SDS011;69556;45.004;7.532;2024-02-21T08:21:36;50.40;;;21.35;;
80241;SDS011;69556;45.004;7.532;2024-02-21T08:24:01;50.53;;;22.90;;
80241;SDS011;69556;45.004;7.532;2024-02-21T08:26:27;52.63;;;23.50;;
80241;SDS011;69556;45.004;7.532;2024-02-21T08:28:55;47.55;;;21.17;;
80241;SDS011;69556;45.004;7.532;2024-02-21T08:31:23;51.67;;;21.38;;
80241;SDS011;69556;45.004;7.532;2024-02-21T08:33:59;48.22;;;21.67;;
80241;SDS011;69556;45.004;7.532;2024-02-21T08:36:35;49.88;;;23.13;;
80241;SDS011;69556;45.004;7.532;2024-02-21T08:39:01;44.42;;;19.70;;
80241;SDS011;69556;45.004;7.532;2024-02-21T08:41:30;51.22;;;22.23;;
80241;SDS011;69556;45.004;7.532;2024-02-21T08:43:59;47.42;;;21.67;;
80241;SDS011;69556;45.004;7.532;2024-02-21T08:46:24;49.67;;;22.38;;
80241;SDS011;69556;45.004;7.532;2024-02-21T08:48:50;56.45;;;23.80;;
80241;SDS011;69556;45.004;7.532;2024-02-21T08:51:21;56.42;;;25.13;;
80241;SDS011;69556;45.004;7.532;2024-02-21T08:53:47;61.05;;;27.48;;
80241;SDS011;69556;45.004;7.532;2024-02-21T08:56:14;60.10;;;26.50;;
80241;SDS011;69556;45.004;7.532;2024-02-21T08:58:40;56.63;;;27.80;;
80241;SDS011;69556;45.004;7.532;2024-02-21T09:01:06;60.08;;;27.48;;
80241;SDS011;69556;45.004;7.532;2024-02-21T09:03:35;59.28;;;28.88;;
80241;SDS011;69556;45.004;7.532;2024-02-21T09:06:01;63.78;;;29.35;;
80241;SDS011;69556;45.004;7.532;2024-02-21T09:08:26;65.65;;;29.48;;
80241;SDS011;69556;45.004;7.532;2024-02-21T09:10:52;67.80;;;30.57;;
80241;SDS011;69556;45.004;7.532;2024-02-21T09:13:18;64.35;;;30.33;;
80241;SDS011;69556;45.004;7.532;2024-02-21T09:15:43;65.22;;;31.40;;
80241;SDS011;69556;45.004;7.532;2024-02-21T09:18:09;60.42;;;28.50;;
80241;SDS011;69556;45.004;7.532;2024-02-21T09:20:34;61.75;;;29.77;;
80241;SDS011;69556;45.004;7.532;2024-02-21T09:23:00;67.53;;;30.45;;
80241;SDS011;69556;45.004;7.532;2024-02-21T09:25:25;53.78;;;26.45;;
80241;SDS011;69556;45.004;7.532;2024-02-21T09:27:51;58.72;;;27.00;;
80241;SDS011;69556;45.004;7.532;2024-02-21T09:30:17;62.25;;;27.05;;
80241;SDS011;69556;45.004;7.532;2024-02-21T09:32:42;63.15;;;25.70;;
80241;SDS011;69556;45.004;7.532;2024-02-21T09:35:08;57.47;;;27.17;;
80241;SDS011;69556;45.004;7.532;2024-02-21T09:37:33;63.90;;;27.48;;
80241;SDS011;69556;45.004;7.532;2024-02-21T09:39:59;56.97;;;25.52;;
80241;SDS011;69556;45.004;7.532;2024-02-21T09:42:27;59.97;;;27.55;;
80241;SDS011;69556;45.004;7.532;2024-02-21T09:45:03;60.38;;;29.92;;
80241;SDS011;69556;45.004;7.532;2024-02-21T09:50:21;66.30;;;29.80;;
80241;SDS011;69556;45.004;7.532;2024-02-21T09:52:49;67.60;;;31.15;;
80241;SDS011;69556;45.004;7.532;2024-02-21T09:55:18;64.53;;;30.17;;
80241;SDS011;69556;45.004;7.532;2024-02-21T09:57:44;67.10;;;29.75;;
80241;SDS011;69556;45.004;7.532;2024-02-21T10:00:09;65.75;;;30.48;;
80241;SDS011;69556;45.004;7.532;2024-02-21T10:02:35;65.20;;;30.10;;
80241;SDS011;69556;45.004;7.532;2024-02-21T10:05:01;59.60;;;28.55;;
80241;SDS011;69556;45.004;7.532;2024-02-21T10:10:02;67.30;;;31.53;;
80241;SDS011;69556;45.004;7.532;2024-02-21T10:12:30;69.10;;;32.47;;
80241;SDS011;69556;45.004;7.532;2024-02-21T10:15:02;81.00;;;33.88;;
80241;SDS011;69556;45.004;7.532;2024-02-21T10:17:28;68.00;;;31.08;;
80241;SDS011;69556;45.004;7.532;2024-02-21T10:19:53;69.68;;;32.15;;
80241;SDS011;69556;45.004;7.532;2024-02-21T10:22:19;71.85;;;33.28;;
80241;SDS011;69556;45.004;7.532;2024-02-21T10:24:46;70.70;;;35.40;;
80241;SDS011;69556;45.004;7.532;2024-02-21T10:27:11;75.95;;;35.90;;
80241;SDS011;69556;45.004;7.532;2024-02-21T10:29:37;70.07;;;35.33;;
80241;SDS011;69556;45.004;7.532;2024-02-21T10:32:13;74.63;;;36.33;;
80241;SDS011;69556;45.004;7.532;2024-02-21T10:34:39;76.63;;;36.63;;
80241;SDS011;69556;45.004;7.532;2024-02-21T10:37:06;84.57;;;37.72;;
80241;SDS011;69556;45.004;7.532;2024-02-21T10:39:34;76.15;;;36.90;;
80241;SDS011;69556;45.004;7.532;2024-02-21T10:42:03;72.53;;;35.53;;
80241;SDS011;69556;45.004;7.532;2024-02-21T10:44:30;70.47;;;34.80;;
80241;SDS011;69556;45.004;7.532;2024-02-21T10:46:58;73.00;;;35.67;;
80241;SDS011;69556;45.004;7.532;2024-02-21T10:49:25;74.10;;;36.80;;
80241;SDS011;69556;45.004;7.532;2024-02-21T10:57:25;81.75;;;39.63;;
80241;SDS011;69556;45.004;7.532;2024-02-21T10:59:52;87.07;;;40.72;;
80241;SDS011;69556;45.004;7.532;2024-02-21T11:02:19;91.20;;;41.95;;
80241;SDS011;69556;45.004;7.532;2024-02-21T11:04:45;88.43;;;44.08;;
80241;SDS011;69556;45.004;7.532;2024-02-21T11:07:11;83.95;;;42.22;;
80241;SDS011;69556;45.004;7.532;2024-02-21T11:09:38;80.45;;;42.35;;
80241;SDS011;69556;45.004;7.532;2024-02-21T11:12:04;84.80;;;41.63;;
80241;SDS011;69556;45.004;7.532;2024-02-21T11:14:31;98.90;;;47.55;;
80241;SDS011;69556;45.004;7.532;2024-02-21T11:17:14;93.82;;;46.85;;
80241;SDS011;69556;45.004;7.532;2024-02-21T11:22:26;93.47;;;46.10;;
80241;SDS011;69556;45.004;7.532;2024-02-21T11:25:05;86.00;;;42.08;;
80241;SDS011;69556;45.004;7.532;2024-02-21T11:27:33;88.03;;;42.45;;
80241;SDS011;69556;45.004;7.532;2024-02-21T11:29:58;85.22;;;44.38;;
80241;SDS011;69556;45.004;7.532;2024-02-21T11:32:25;89.75;;;46.80;;
80241;SDS011;69556;45.004;7.532;2024-02-21T11:37:30;94.07;;;47.10;;
80241;SDS011;69556;45.004;7.532;2024-02-21T11:40:01;93.63;;;47.17;;
80241;SDS011;69556;45.004;7.532;2024-02-21T11:42:28;92.35;;;46.05;;
80241;SDS011;69556;45.004;7.532;2024-02-21T11:44:55;86.65;;;43.35;;
80241;SDS011;69556;45.004;7.532;2024-02-21T11:47:24;87.60;;;43.25;;
80241;SDS011;69556;45.004;7.532;2024-02-21T11:49:49;90.45;;;43.65;;
80241;SDS011;69556;45.004;7.532;2024-02-21T11:52:18;100.53;;;47.70;;
80241;SDS011;69556;45.004;7.532;2024-02-21T11:54:47;90.22;;;46.08;;
80241;SDS011;69556;45.004;7.532;2024-02-21T11:57:13;108.63;;;56.20;;
80241;SDS011;69556;45.004;7.532;2024-02-21T11:59:39;92.70;;;45.75;;
80241;SDS011;69556;45.004;7.532;2024-02-21T12:02:05;98.00;;;44.35;;
80241;SDS011;69556;45.004;7.532;2024-02-21T12:04:31;81.70;;;40.75;;
80241;SDS011;69556;45.004;7.532;2024-02-21T12:06:57;86.10;;;43.38;;
80241;SDS011;69556;45.004;7.532;2024-02-21T12:09:23;82.70;;;42.53;;
80241;SDS011;69556;45.004;7.532;2024-02-21T12:14:25;88.75;;;45.17;;
80241;SDS011;69556;45.004;7.532;2024-02-21T12:16:51;81.82;;;41.92;;
80241;SDS011;69556;45.004;7.532;2024-02-21T12:19:17;79.00;;;38.67;;
80241;SDS011;69556;45.004;7.532;2024-02-21T12:21:42;83.53;;;41.80;;
80241;SDS011;69556;45.004;7.532;2024-02-21T12:24:15;79.15;;;40.80;;
80241;SDS011;69556;45.004;7.532;2024-02-21T12:26:42;88.82;;;45.97;;
80241;SDS011;69556;45.004;7.532;2024-02-21T12:29:08;88.30;;;45.97;;
80241;SDS011;69556;45.004;7.532;2024-02-21T12:31:36;82.75;;;41.28;;
80241;SDS011;69556;45.004;7.532;2024-02-21T12:34:02;81.45;;;38.90;;
80241;SDS011;69556;45.004;7.532;2024-02-21T12:36:29;80.43;;;41.75;;
80241;SDS011;69556;45.004;7.532;2024-02-21T12:38:54;78.90;;;39.97;;
80241;SDS011;69556;45.004;7.532;2024-02-21T12:41:20;79.17;;;41.03;;
80241;SDS011;69556;45.004;7.532;2024-02-21T12:43:45;78.32;;;37.33;;
80241;SDS011;69556;45.004;7.532;2024-02-21T12:46:10;77.60;;;37.17;;
80241;SDS011;69556;45.004;7.532;2024-02-21T12:48:36;82.80;;;38.08;;
80241;SDS011;69556;45.004;7.532;2024-02-21T12:51:01;82.65;;;40.72;;
80241;SDS011;69556;45.004;7.532;2024-02-21T12:53:27;83.90;;;41.05;;
80241;SDS011;69556;45.004;7.532;2024-02-21T12:55:52;91.57;;;42.95;;
80241;SDS011;69556;45.004;7.532;2024-02-21T12:58:18;84.57;;;43.88;;
80241;SDS011;69556;45.004;7.532;2024-02-21T13:00:43;72.70;;;36.33;;
80241;SDS011;69556;45.004;7.532;2024-02-21T13:03:09;80.72;;;40.15;;
80241;SDS011;69556;45.004;7.532;2024-02-21T13:05:38;82.93;;;40.47;;
80241;SDS011;69556;45.004;7.532;2024-02-21T13:08:04;80.07;;;39.38;;
80241;SDS011;69556;45.004;7.532;2024-02-21T13:10:33;74.43;;;38.08;;
80241;SDS011;69556;45.004;7.532;2024-02-21T13:12:59;81.43;;;39.10;;
80241;SDS011;69556;45.004;7.532;2024-02-21T13:15:25;70.85;;;36.90;;
80241;SDS011;69556;45.004;7.532;2024-02-21T13:17:52;72.15;;;37.83;;
80241;SDS011;69556;45.004;7.532;2024-02-21T13:20:18;72.82;;;38.35;;
80241;SDS011;69556;45.004;7.532;2024-02-21T13:22:43;80.47;;;38.60;;
80241;SDS011;69556;45.004;7.532;2024-02-21T13:25:08;82.07;;;41.28;;
80241;SDS011;69556;45.004;7.532;2024-02-21T13:27:35;88.65;;;44.35;;
80241;SDS011;69556;45.004;7.532;2024-02-21T13:30:00;79.97;;;42.80;;
80241;SDS011;69556;45.004;7.532;2024-02-21T13:32:30;76.00;;;36.97;;
80241;SDS011;69556;45.004;7.532;2024-02-21T13:34:56;72.78;;;37.85;;
80241;SDS011;69556;45.004;7.532;2024-02-21T13:37:21;73.20;;;37.05;;
80241;SDS011;69556;45.004;7.532;2024-02-21T13:39:47;74.60;;;36.63;;
80241;SDS011;69556;45.004;7.532;2024-02-21T13:42:12;73.82;;;36.03;;
80241;SDS011;69556;45.004;7.532;2024-02-21T13:44:38;75.53;;;38.88;;
80241;SDS011;69556;45.004;7.532;2024-02-21T13:47:03;81.72;;;39.13;;
80241;SDS011;69556;45.004;7.532;2024-02-21T13:49:29;80.85;;;42.03;;
80241;SDS011;69556;45.004;7.532;2024-02-21T13:51:55;87.57;;;42.25;;
80241;SDS011;69556;45.004;7.532;2024-02-21T13:54:20;79.60;;;41.10;;
80241;SDS011;69556;45.004;7.532;2024-02-21T13:56:46;79.68;;;40.22;;
80241;SDS011;69556;45.004;7.532;2024-02-21T13:59:12;77.38;;;39.28;;
80241;SDS011;69556;45.004;7.532;2024-02-21T14:01:40;71.65;;;38.80;;
80241;SDS011;69556;45.004;7.532;2024-02-21T14:04:05;78.00;;;39.10;;
80241;SDS011;69556;45.004;7.532;2024-02-21T14:06:31;80.77;;;41.07;;
80241;SDS011;69556;45.004;7.532;2024-02-21T14:08:56;85.07;;;43.17;;
80241;SDS011;69556;45.004;7.532;2024-02-21T14:11:21;88.33;;;43.17;;
80241;SDS011;69556;45.004;7.532;2024-02-21T14:13:47;84.57;;;41.90;;
80241;SDS011;69556;45.004;7.532;2024-02-21T14:16:12;84.10;;;43.15;;
80241;SDS011;69556;45.004;7.532;2024-02-21T14:18:40;84.72;;;41.70;;
80241;SDS011;69556;45.004;7.532;2024-02-21T14:21:07;75.50;;;40.97;;
80241;SDS011;69556;45.004;7.532;2024-02-21T14:23:32;85.25;;;43.63;;
80241;SDS011;69556;45.004;7.532;2024-02-21T14:25:59;82.00;;;41.13;;
80241;SDS011;69556;45.004;7.532;2024-02-21T14:28:24;80.85;;;41.08;;
80241;SDS011;69556;45.004;7.532;2024-02-21T14:30:49;82.50;;;40.63;;
80241;SDS011;69556;45.004;7.532;2024-02-21T14:33:18;76.35;;;40.17;;
80241;SDS011;69556;45.004;7.532;2024-02-21T14:35:44;84.63;;;39.70;;
80241;SDS011;69556;45.004;7.532;2024-02-21T14:38:09;83.27;;;39.27;;
80241;SDS011;69556;45.004;7.532;2024-02-21T14:40:34;82.60;;;41.03;;
80241;SDS011;69556;45.004;7.532;2024-02-21T14:43:00;77.83;;;42.50;;